createdAt,value
2022-12-15T00:05:12.523Z,-2.93
2022-12-15T00:10:32.940Z,-2.96
2022-12-15T00:15:52.968Z,-2.91
2022-12-15T00:21:16.593Z,-3.00
2022-12-15T00:26:37.199Z,-3.24
2022-12-15T00:31:58.156Z,-3.17
2022-12-15T00:37:18.442Z,-3.43
2022-12-15T00:42:20.045Z,-3.08
2022-12-15T00:47:21.686Z,-3.46
2022-12-15T00:52:41.902Z,-3.44
2022-12-15T00:58:02.698Z,-3.49
2022-12-15T01:03:42.999Z,-3.34
2022-12-15T01:09:03.649Z,-3.58
2022-12-15T01:14:23.582Z,-3.58
2022-12-15T01:19:43.733Z,-3.38
2022-12-15T01:24:45.290Z,-3.34
2022-12-15T01:29:46.914Z,-3.47
2022-12-15T01:34:49.748Z,-3.37
2022-12-15T01:40:09.714Z,-3.78
2022-12-15T01:45:29.374Z,-3.42
2022-12-15T01:50:33.553Z,-3.12
2022-12-15T01:55:35.219Z,-3.02
2022-12-15T02:00:36.947Z,-2.84
2022-12-15T02:05:39.308Z,-2.84
2022-12-15T02:11:16.184Z,-2.78
2022-12-15T02:16:37.994Z,-2.53
2022-12-15T02:21:43.818Z,-2.64
2022-12-15T02:26:51.292Z,-2.54
2022-12-15T02:31:59.361Z,-2.83
2022-12-15T02:37:11.780Z,-2.88
2022-12-15T02:42:13.411Z,-2.84
2022-12-15T02:47:32.784Z,-2.83
2022-12-15T02:52:59.456Z,-2.84
2022-12-15T02:58:05.762Z,-2.75
2022-12-15T03:03:07.895Z,-3.03
2022-12-15T03:08:09.567Z,-2.87
2022-12-15T03:13:11.127Z,-3.02
2022-12-15T03:18:12.705Z,-2.90
2022-12-15T03:23:14.308Z,-2.84
2022-12-15T03:28:15.902Z,-2.91
2022-12-15T03:33:17.554Z,-2.94
2022-12-15T03:38:19.175Z,-2.90
2022-12-15T03:43:20.723Z,-2.91
2022-12-15T03:48:22.337Z,-3.23
2022-12-15T03:53:23.937Z,-3.06
2022-12-15T03:58:25.495Z,-3.06
2022-12-15T04:03:27.134Z,-3.05
2022-12-15T04:08:28.724Z,-3.24
2022-12-15T04:13:30.540Z,-3.11
2022-12-15T04:18:32.449Z,-3.19
2022-12-15T04:23:34.305Z,-3.42
2022-12-15T04:28:54.490Z,-3.39
2022-12-15T04:34:18.714Z,-3.38
2022-12-15T04:39:38.820Z,-3.07
2022-12-15T04:44:59.118Z,-3.29
2022-12-15T04:50:19.212Z,-3.34
2022-12-15T04:55:39.414Z,-3.26
2022-12-15T05:00:59.650Z,-3.34
2022-12-15T05:06:20.023Z,-3.26
2022-12-15T05:11:40.340Z,-3.36
2022-12-15T05:17:00.383Z,-3.44
2022-12-15T05:22:20.379Z,-3.40
2022-12-15T05:27:40.501Z,-3.43
2022-12-15T05:32:43.221Z,-3.57
2022-12-15T05:37:44.791Z,-3.44
2022-12-15T05:42:50.110Z,-3.61
2022-12-15T05:47:52.658Z,-3.70
2022-12-15T05:52:55.612Z,-3.80
2022-12-15T05:57:57.287Z,-3.77
2022-12-15T06:02:59.121Z,-4.04
2022-12-15T06:08:00.969Z,-3.82
2022-12-15T06:13:02.540Z,-3.85
2022-12-15T06:18:04.189Z,-3.87
2022-12-15T06:23:05.768Z,-3.93
2022-12-15T06:28:07.304Z,-4.05
2022-12-15T06:33:08.873Z,-4.01
2022-12-15T06:38:10.498Z,-4.10
2022-12-15T06:43:12.132Z,-3.98
2022-12-15T06:48:13.740Z,-3.99
2022-12-15T06:53:19.635Z,-3.92
2022-12-15T06:58:21.311Z,-4.06
2022-12-15T07:03:23.119Z,-4.08
2022-12-15T07:08:30.792Z,-4.08
2022-12-15T07:13:34.591Z,-4.21
2022-12-15T07:18:36.380Z,-4.05
2022-12-15T07:23:55.728Z,-4.02
2022-12-15T07:28:58.137Z,-3.95
2022-12-15T07:33:59.758Z,-4.11
2022-12-15T07:39:04.797Z,-3.92
2022-12-15T07:44:06.415Z,-3.89
2022-12-15T07:49:09.332Z,-3.99
2022-12-15T07:54:12.112Z,-4.00
2022-12-15T07:59:13.666Z,-4.02
2022-12-15T08:04:15.753Z,-3.96
2022-12-15T08:09:17.340Z,-3.86
2022-12-15T08:14:19.388Z,-4.01
2022-12-15T08:19:21.294Z,-4.10
2022-12-15T08:24:22.869Z,-3.74
2022-12-15T08:29:50.027Z,-3.76
2022-12-15T08:34:47.715Z,-3.70
2022-12-15T08:39:49.320Z,-3.74
2022-12-15T08:44:51.456Z,-3.79
2022-12-15T08:49:54.534Z,-3.88
2022-12-15T08:54:56.102Z,-3.85
2022-12-15T08:59:57.695Z,-3.91
2022-12-15T09:04:59.244Z,-3.87
2022-12-15T09:10:00.861Z,-3.69
2022-12-15T09:15:02.441Z,-3.80
2022-12-15T09:20:04.432Z,-3.60
2022-12-15T09:25:06.366Z,-3.52
2022-12-15T09:30:09.165Z,-3.51
2022-12-15T09:35:10.733Z,-3.55
2022-12-15T09:40:13.122Z,-3.62
2022-12-15T09:45:19.815Z,-3.44
2022-12-15T09:50:26.428Z,-3.47
2022-12-15T09:55:35.170Z,-3.32
2022-12-15T10:00:57.002Z,-3.34
2022-12-15T10:06:17.750Z,-3.35
2022-12-15T10:11:42.769Z,-3.35
2022-12-15T10:17:14.235Z,-3.27
2022-12-15T10:22:36.773Z,-3.20
2022-12-15T10:28:05.894Z,-2.99
2022-12-15T10:33:28.419Z,-2.90
2022-12-15T10:38:37.982Z,-2.95
2022-12-15T10:43:41.951Z,-2.99
2022-12-15T10:48:48.522Z,-2.80
2022-12-15T10:54:06.609Z,-2.87
2022-12-15T10:59:23.256Z,-2.64
2022-12-15T11:04:29.973Z,-2.62
2022-12-15T11:09:36.996Z,-2.50
2022-12-15T11:14:43.946Z,-2.56
2022-12-15T11:20:03.014Z,-2.54
2022-12-15T11:25:25.241Z,-2.47
2022-12-15T11:30:33.206Z,-2.44
2022-12-15T11:35:54.276Z,-2.40
2022-12-15T11:40:57.806Z,-2.16
2022-12-15T11:46:01.904Z,-2.24
2022-12-15T11:51:29.398Z,-2.20
2022-12-15T11:56:50.552Z,-2.04
2022-12-15T12:02:04.188Z,-2.16
2022-12-15T12:07:43.915Z,-2.08
2022-12-15T12:13:14.125Z,-1.94
2022-12-15T12:18:21.724Z,-1.94
2022-12-15T12:23:42.880Z,-1.97
2022-12-15T12:28:57.029Z,-1.96
2022-12-15T12:34:03.188Z,-1.90
2022-12-15T12:39:04.885Z,-1.91
2022-12-15T12:44:32.387Z,-1.72
2022-12-15T12:49:40.935Z,-1.76
2022-12-15T12:54:46.984Z,-1.75
2022-12-15T12:59:59.168Z,-1.74
2022-12-15T13:05:05.090Z,-1.76
2022-12-15T13:10:09.831Z,-1.78
2022-12-15T13:15:21.385Z,-1.75
2022-12-15T13:20:25.924Z,-1.68
2022-12-15T13:25:40.711Z,-1.60
2022-12-15T13:31:16.717Z,-1.61
2022-12-15T13:36:55.921Z,-1.56
2022-12-15T13:47:27.645Z,-1.45
2022-12-15T13:53:16.235Z,-1.59
2022-12-15T13:58:00.031Z,-1.58
2022-12-15T14:03:11.804Z,-1.59
2022-12-15T14:08:14.984Z,-1.58
2022-12-15T14:13:22.426Z,-1.55
2022-12-15T14:18:31.321Z,-1.59
2022-12-15T14:24:11.028Z,-1.63
2022-12-15T14:29:06.470Z,-1.73
2022-12-15T14:34:19.689Z,-1.70
2022-12-15T14:39:23.525Z,-1.70
2022-12-15T14:50:02.053Z,-1.71
2022-12-15T14:55:23.546Z,-1.73
2022-12-15T15:00:31.577Z,-1.83
2022-12-15T15:05:33.329Z,-1.81
2022-12-15T15:10:35.021Z,-1.88
2022-12-15T15:15:36.628Z,-1.89
2022-12-15T15:20:38.278Z,-1.82
2022-12-15T15:25:42.551Z,-1.96
2022-12-15T15:31:07.113Z,-1.99
2022-12-15T15:36:10.243Z,-2.03
2022-12-15T15:41:16.529Z,-1.98
2022-12-15T15:46:21.033Z,-2.07
2022-12-15T15:51:24.346Z,-2.21
2022-12-15T15:56:27.494Z,-2.18
2022-12-15T16:01:29.181Z,-2.21
2022-12-15T16:06:30.890Z,-2.29
2022-12-15T16:11:33.358Z,-2.38
2022-12-15T16:16:35.154Z,-2.43
2022-12-15T16:21:36.912Z,-2.47
2022-12-15T16:26:39.290Z,-2.52
2022-12-15T16:31:45.386Z,-2.55
2022-12-15T16:36:47.457Z,-2.64
2022-12-15T16:41:49.054Z,-2.64
2022-12-15T16:46:51.370Z,-2.70
2022-12-15T16:51:53.845Z,-2.51
2022-12-15T16:56:56.923Z,-2.65
2022-12-15T17:01:58.594Z,-2.64
2022-12-15T17:07:00.407Z,-2.72
2022-12-15T17:12:02.217Z,-2.79
2022-12-15T17:17:12.959Z,-2.80
2022-12-15T17:22:15.085Z,-2.91
2022-12-15T17:27:27.984Z,-2.86
2022-12-15T17:32:29.719Z,-2.98
2022-12-15T17:37:35.227Z,-2.95
2022-12-15T17:42:37.451Z,-3.12
2022-12-15T17:47:39.135Z,-3.07
2022-12-15T17:52:43.122Z,-2.88
2022-12-15T17:57:45.091Z,-2.97
2022-12-15T18:02:47.392Z,-3.07
2022-12-15T18:08:01.759Z,-2.87
2022-12-15T18:13:03.997Z,-2.72
2022-12-15T18:18:05.728Z,-2.95
2022-12-15T18:23:20.881Z,-2.84
2022-12-15T18:28:28.132Z,-2.91
2022-12-15T18:33:33.212Z,-2.69
2022-12-15T18:38:35.056Z,-2.78
2022-12-15T18:43:37.385Z,-2.73
2022-12-15T18:48:40.156Z,-2.58
2022-12-15T18:53:41.980Z,-2.60
2022-12-15T18:58:43.869Z,-2.79
2022-12-15T19:03:45.502Z,-2.69
2022-12-15T19:08:47.196Z,-2.61
2022-12-15T19:13:48.926Z,-2.69
2022-12-15T19:19:12.536Z,-2.62
2022-12-15T19:24:48.456Z,-2.74
2022-12-15T19:29:50.545Z,-2.68
2022-12-15T19:34:52.236Z,-2.50
2022-12-15T19:39:55.343Z,-2.69
2022-12-15T19:44:57.152Z,-2.77
2022-12-15T19:49:58.760Z,-2.71
2022-12-15T19:55:01.366Z,-2.54
2022-12-15T20:00:13.780Z,-2.70
2022-12-15T20:05:15.418Z,-2.63
2022-12-15T20:10:29.454Z,-2.67
2022-12-15T20:15:34.855Z,-2.58
2022-12-15T20:20:37.478Z,-2.60
2022-12-15T20:25:40.924Z,-2.57
2022-12-15T20:30:44.197Z,-2.51
2022-12-15T20:35:47.836Z,-2.62
2022-12-15T20:40:50.495Z,-2.56
2022-12-15T20:46:04.310Z,-2.47
2022-12-15T20:51:09.887Z,-2.47
2022-12-15T20:56:11.777Z,-2.28
2022-12-15T21:01:33.220Z,-2.43
2022-12-15T21:06:36.849Z,-2.81
2022-12-15T21:11:38.680Z,-2.42
2022-12-15T21:16:40.363Z,-2.52
2022-12-15T21:21:51.859Z,-2.31
2022-12-15T21:26:53.822Z,-2.42
2022-12-15T21:31:56.897Z,-2.41
2022-12-15T21:36:58.614Z,-2.40
2022-12-15T21:42:04.070Z,-2.26
2022-12-15T21:47:47.354Z,-2.24
2022-12-15T21:52:49.108Z,-2.41
2022-12-15T21:57:51.669Z,-2.17
2022-12-15T22:02:54.096Z,-2.30
2022-12-15T22:07:58.252Z,-2.32
2022-12-15T22:13:00.082Z,-2.71
2022-12-15T22:18:01.816Z,-2.26
2022-12-15T22:23:03.448Z,-2.38
2022-12-15T22:28:05.187Z,-2.13
2022-12-15T22:33:21.575Z,-2.27
2022-12-15T22:38:24.292Z,-2.26
2022-12-15T22:43:40.243Z,-2.49
2022-12-15T22:48:44.259Z,-2.21
2022-12-15T22:53:46.049Z,-2.49
2022-12-15T22:58:48.404Z,-2.29
2022-12-15T23:03:51.511Z,-2.24
2022-12-15T23:08:55.813Z,-2.27
2022-12-15T23:13:57.831Z,-2.22
2022-12-15T23:19:00.305Z,-2.23
2022-12-15T23:24:01.962Z,-2.22
2022-12-15T23:29:03.702Z,-2.55
2022-12-15T23:34:05.528Z,-2.52
2022-12-15T23:39:07.279Z,-2.43
2022-12-15T23:44:12.233Z,-2.39
2022-12-15T23:49:13.931Z,-2.18
2022-12-15T23:54:15.667Z,-2.04
2022-12-15T23:59:17.483Z,-2.23
